sensor_id;sensor_type;location;lat;lon;timestamp;temperature;humidity
33717;DHT22;20046;50.746;7.072;2022-09-29T00:00:25;7.60;99.90
33717;DHT22;20046;50.746;7.072;2022-09-29T00:02:53;7.60;99.90
33717;DHT22;20046;50.746;7.072;2022-09-29T00:05:20;7.60;99.90
33717;DHT22;20046;50.746;7.072;2022-09-29T00:07:45;7.60;99.90
33717;DHT22;20046;50.746;7.072;2022-09-29T00:10:11;7.60;99.90
33717;DHT22;20046;50.746;7.072;2022-09-29T00:12:37;7.70;99.90
33717;DHT22;20046;50.746;7.072;2022-09-29T00:15:03;7.60;99.90
33717;DHT22;20046;50.746;7.072;2022-09-29T00:17:29;7.70;99.90
33717;DHT22;20046;50.746;7.072;2022-09-29T00:19:54;7.60;99.90
33717;DHT22;20046;50.746;7.072;2022-09-29T00:22:20;7.60;99.90
33717;DHT22;20046;50.746;7.072;2022-09-29T00:24:46;7.50;99.90
33717;DHT22;20046;50.746;7.072;2022-09-29T00:27:16;7.50;99.90
33717;DHT22;20046;50.746;7.072;2022-09-29T00:29:42;7.40;99.90
33717;DHT22;20046;50.746;7.072;2022-09-29T00:32:07;7.40;99.90
33717;DHT22;20046;50.746;7.072;2022-09-29T00:34:33;7.30;99.90
33717;DHT22;20046;50.746;7.072;2022-09-29T00:36:59;7.30;99.90
33717;DHT22;20046;50.746;7.072;2022-09-29T00:39:24;7.30;99.90
33717;DHT22;20046;50.746;7.072;2022-09-29T00:41:50;7.30;99.90
33717;DHT22;20046;50.746;7.072;2022-09-29T00:49:27;7.20;99.90
33717;DHT22;20046;50.746;7.072;2022-09-29T00:54:32;7.10;99.90
33717;DHT22;20046;50.746;7.072;2022-09-29T00:57:02;7.10;99.90
33717;DHT22;20046;50.746;7.072;2022-09-29T00:59:39;7.10;99.90
33717;DHT22;20046;50.746;7.072;2022-09-29T01:02:06;7.10;99.90
33717;DHT22;20046;50.746;7.072;2022-09-29T01:04:33;7.20;99.90
33717;DHT22;20046;50.746;7.072;2022-09-29T01:06:59;7.20;99.90
33717;DHT22;20046;50.746;7.072;2022-09-29T01:09:28;7.20;99.90
33717;DHT22;20046;50.746;7.072;2022-09-29T01:11:55;7.20;99.90
33717;DHT22;20046;50.746;7.072;2022-09-29T01:14:23;7.20;99.90
33717;DHT22;20046;50.746;7.072;2022-09-29T01:16:50;7.20;99.90
33717;DHT22;20046;50.746;7.072;2022-09-29T01:19:31;7.20;99.90
33717;DHT22;20046;50.746;7.072;2022-09-29T01:22:33;7.10;99.90
33717;DHT22;20046;50.746;7.072;2022-09-29T01:31:29;7.10;99.90
33717;DHT22;20046;50.746;7.072;2022-09-29T01:39:17;7.00;99.90
33717;DHT22;20046;50.746;7.072;2022-09-29T01:41:55;7.00;99.90
33717;DHT22;20046;50.746;7.072;2022-09-29T01:47:26;6.90;99.90
33717;DHT22;20046;50.746;7.072;2022-09-29T01:49:59;6.90;99.90
33717;DHT22;20046;50.746;7.072;2022-09-29T01:52:28;6.90;99.90
33717;DHT22;20046;50.746;7.072;2022-09-29T01:55:07;6.80;99.90
33717;DHT22;20046;50.746;7.072;2022-09-29T01:57:59;6.80;99.90
33717;DHT22;20046;50.746;7.072;2022-09-29T02:00:28;6.80;99.90
33717;DHT22;20046;50.746;7.072;2022-09-29T02:05:54;6.80;99.90
33717;DHT22;20046;50.746;7.072;2022-09-29T02:08:42;6.80;99.90
33717;DHT22;20046;50.746;7.072;2022-09-29T02:11:12;6.80;99.90
33717;DHT22;20046;50.746;7.072;2022-09-29T02:16:22;6.90;99.90
33717;DHT22;20046;50.746;7.072;2022-09-29T02:19:03;6.90;99.90
33717;DHT22;20046;50.746;7.072;2022-09-29T02:21:30;6.80;99.90
33717;DHT22;20046;50.746;7.072;2022-09-29T02:23:56;6.80;99.90
33717;DHT22;20046;50.746;7.072;2022-09-29T02:26:23;6.80;99.90
33717;DHT22;20046;50.746;7.072;2022-09-29T02:28:50;6.70;99.90
33717;DHT22;20046;50.746;7.072;2022-09-29T02:31:17;6.70;99.90
33717;DHT22;20046;50.746;7.072;2022-09-29T02:33:43;6.70;99.90
33717;DHT22;20046;50.746;7.072;2022-09-29T02:36:17;6.70;99.90
33717;DHT22;20046;50.746;7.072;2022-09-29T02:38:59;6.60;99.90
33717;DHT22;20046;50.746;7.072;2022-09-29T02:44:18;6.50;99.90
33717;DHT22;20046;50.746;7.072;2022-09-29T02:47:05;6.50;99.90
33717;DHT22;20046;50.746;7.072;2022-09-29T02:49:55;6.50;99.90
33717;DHT22;20046;50.746;7.072;2022-09-29T02:52:47;6.50;99.90
33717;DHT22;20046;50.746;7.072;2022-09-29T02:58:01;6.60;99.90
33717;DHT22;20046;50.746;7.072;2022-09-29T03:00:28;6.60;99.90
33717;DHT22;20046;50.746;7.072;2022-09-29T03:02:54;6.60;99.90
33717;DHT22;20046;50.746;7.072;2022-09-29T03:05:21;6.50;99.90
33717;DHT22;20046;50.746;7.072;2022-09-29T03:07:48;6.50;99.90
33717;DHT22;20046;50.746;7.072;2022-09-29T03:10:15;6.50;99.90
33717;DHT22;20046;50.746;7.072;2022-09-29T03:12:40;6.50;99.90
33717;DHT22;20046;50.746;7.072;2022-09-29T03:15:07;6.40;99.90
33717;DHT22;20046;50.746;7.072;2022-09-29T03:17:33;6.40;99.90
33717;DHT22;20046;50.746;7.072;2022-09-29T03:19:59;6.40;99.90
33717;DHT22;20046;50.746;7.072;2022-09-29T03:22:25;6.40;99.90
33717;DHT22;20046;50.746;7.072;2022-09-29T03:24:51;6.40;99.90
33717;DHT22;20046;50.746;7.072;2022-09-29T03:27:17;6.40;99.90
33717;DHT22;20046;50.746;7.072;2022-09-29T03:29:43;6.30;99.90
33717;DHT22;20046;50.746;7.072;2022-09-29T03:32:08;6.30;99.90
33717;DHT22;20046;50.746;7.072;2022-09-29T03:34:34;6.30;99.90
33717;DHT22;20046;50.746;7.072;2022-09-29T03:37:00;6.20;99.90
33717;DHT22;20046;50.746;7.072;2022-09-29T03:39:26;6.20;99.90
33717;DHT22;20046;50.746;7.072;2022-09-29T03:41:52;6.20;99.90
33717;DHT22;20046;50.746;7.072;2022-09-29T03:44:18;6.10;99.90
33717;DHT22;20046;50.746;7.072;2022-09-29T03:46:44;6.10;99.90
33717;DHT22;20046;50.746;7.072;2022-09-29T03:49:11;6.10;99.90
33717;DHT22;20046;50.746;7.072;2022-09-29T03:51:37;6.10;99.90
33717;DHT22;20046;50.746;7.072;2022-09-29T03:54:03;6.10;99.90
33717;DHT22;20046;50.746;7.072;2022-09-29T03:56:29;6.10;99.90
33717;DHT22;20046;50.746;7.072;2022-09-29T03:58:55;6.10;99.90
33717;DHT22;20046;50.746;7.072;2022-09-29T04:01:21;6.00;99.90
33717;DHT22;20046;50.746;7.072;2022-09-29T04:03:46;6.00;99.90
33717;DHT22;20046;50.746;7.072;2022-09-29T04:06:12;6.00;99.90
33717;DHT22;20046;50.746;7.072;2022-09-29T04:08:38;6.00;99.90
33717;DHT22;20046;50.746;7.072;2022-09-29T04:11:04;6.00;99.90
33717;DHT22;20046;50.746;7.072;2022-09-29T04:13:30;6.00;99.90
33717;DHT22;20046;50.746;7.072;2022-09-29T04:16:03;6.00;99.90
33717;DHT22;20046;50.746;7.072;2022-09-29T04:18:29;6.00;99.90
33717;DHT22;20046;50.746;7.072;2022-09-29T04:20:56;6.00;99.90
33717;DHT22;20046;50.746;7.072;2022-09-29T04:23:25;5.90;99.90
33717;DHT22;20046;50.746;7.072;2022-09-29T04:25:52;5.90;99.90
33717;DHT22;20046;50.746;7.072;2022-09-29T04:28:17;5.90;99.90
33717;DHT22;20046;50.746;7.072;2022-09-29T04:30:43;6.00;99.90
33717;DHT22;20046;50.746;7.072;2022-09-29T04:33:08;6.00;99.90
33717;DHT22;20046;50.746;7.072;2022-09-29T04:35:34;6.00;99.90
33717;DHT22;20046;50.746;7.072;2022-09-29T04:38:00;6.00;99.90
33717;DHT22;20046;50.746;7.072;2022-09-29T04:40:26;6.00;99.90
33717;DHT22;20046;50.746;7.072;2022-09-29T04:42:52;6.10;99.90
33717;DHT22;20046;50.746;7.072;2022-09-29T04:45:18;6.10;99.90
33717;DHT22;20046;50.746;7.072;2022-09-29T04:47:43;6.10;99.90
33717;DHT22;20046;50.746;7.072;2022-09-29T04:50:09;6.10;99.90
33717;DHT22;20046;50.746;7.072;2022-09-29T04:52:35;6.10;99.90
33717;DHT22;20046;50.746;7.072;2022-09-29T04:55:02;6.10;99.90
33717;DHT22;20046;50.746;7.072;2022-09-29T04:57:27;6.10;99.90
33717;DHT22;20046;50.746;7.072;2022-09-29T04:59:53;6.10;99.90
33717;DHT22;20046;50.746;7.072;2022-09-29T05:02:19;6.10;99.90
33717;DHT22;20046;50.746;7.072;2022-09-29T05:04:45;6.20;99.90
33717;DHT22;20046;50.746;7.072;2022-09-29T05:07:12;6.20;99.90
33717;DHT22;20046;50.746;7.072;2022-09-29T05:09:38;6.20;99.90
33717;DHT22;20046;50.746;7.072;2022-09-29T05:12:03;6.30;99.90
33717;DHT22;20046;50.746;7.072;2022-09-29T05:14:29;6.30;99.90
33717;DHT22;20046;50.746;7.072;2022-09-29T05:16:56;6.30;99.90
33717;DHT22;20046;50.746;7.072;2022-09-29T05:19:21;6.30;99.90
33717;DHT22;20046;50.746;7.072;2022-09-29T05:21:47;6.30;99.90
33717;DHT22;20046;50.746;7.072;2022-09-29T05:24:13;6.30;99.90
33717;DHT22;20046;50.746;7.072;2022-09-29T05:26:38;6.30;99.90
33717;DHT22;20046;50.746;7.072;2022-09-29T05:29:04;6.30;99.90
33717;DHT22;20046;50.746;7.072;2022-09-29T05:31:29;6.30;99.90
33717;DHT22;20046;50.746;7.072;2022-09-29T05:33:55;6.30;99.90
33717;DHT22;20046;50.746;7.072;2022-09-29T05:36:22;6.30;99.90
33717;DHT22;20046;50.746;7.072;2022-09-29T05:38:48;6.30;99.90
33717;DHT22;20046;50.746;7.072;2022-09-29T05:41:14;6.40;99.90
33717;DHT22;20046;50.746;7.072;2022-09-29T05:43:49;6.40;99.90
33717;DHT22;20046;50.746;7.072;2022-09-29T05:46:16;6.40;99.90
33717;DHT22;20046;50.746;7.072;2022-09-29T05:48:42;6.40;99.90
33717;DHT22;20046;50.746;7.072;2022-09-29T05:51:12;6.40;99.90
33717;DHT22;20046;50.746;7.072;2022-09-29T05:53:39;6.40;99.90
33717;DHT22;20046;50.746;7.072;2022-09-29T05:56:10;6.40;99.90
33717;DHT22;20046;50.746;7.072;2022-09-29T05:58:37;6.40;99.90
33717;DHT22;20046;50.746;7.072;2022-09-29T06:01:11;6.50;99.90
33717;DHT22;20046;50.746;7.072;2022-09-29T06:03:37;6.50;99.90
33717;DHT22;20046;50.746;7.072;2022-09-29T06:06:15;6.50;99.90
33717;DHT22;20046;50.746;7.072;2022-09-29T06:08:42;6.50;99.90
33717;DHT22;20046;50.746;7.072;2022-09-29T06:11:16;6.50;99.90
33717;DHT22;20046;50.746;7.072;2022-09-29T06:13:47;6.60;99.90
33717;DHT22;20046;50.746;7.072;2022-09-29T06:16:14;6.60;99.90
33717;DHT22;20046;50.746;7.072;2022-09-29T06:18:40;6.50;99.90
33717;DHT22;20046;50.746;7.072;2022-09-29T06:21:13;6.70;99.90
33717;DHT22;20046;50.746;7.072;2022-09-29T06:23:39;6.70;99.90
33717;DHT22;20046;50.746;7.072;2022-09-29T06:26:07;6.70;99.90
33717;DHT22;20046;50.746;7.072;2022-09-29T06:28:34;6.80;99.90
33717;DHT22;20046;50.746;7.072;2022-09-29T06:31:09;6.80;99.90
33717;DHT22;20046;50.746;7.072;2022-09-29T06:33:35;6.90;99.90
33717;DHT22;20046;50.746;7.072;2022-09-29T06:39:02;6.90;99.90
33717;DHT22;20046;50.746;7.072;2022-09-29T06:41:28;7.00;99.90
33717;DHT22;20046;50.746;7.072;2022-09-29T06:43:54;7.00;99.90
33717;DHT22;20046;50.746;7.072;2022-09-29T06:46:20;7.00;99.90
33717;DHT22;20046;50.746;7.072;2022-09-29T06:48:46;7.00;99.90
33717;DHT22;20046;50.746;7.072;2022-09-29T06:51:12;7.10;99.90
33717;DHT22;20046;50.746;7.072;2022-09-29T06:53:39;7.10;99.90
33717;DHT22;20046;50.746;7.072;2022-09-29T06:56:06;7.10;99.90
33717;DHT22;20046;50.746;7.072;2022-09-29T06:58:33;7.20;99.90
33717;DHT22;20046;50.746;7.072;2022-09-29T07:01:01;7.20;99.90
33717;DHT22;20046;50.746;7.072;2022-09-29T07:03:30;7.30;99.90
33717;DHT22;20046;50.746;7.072;2022-09-29T07:05:56;7.30;99.90
33717;DHT22;20046;50.746;7.072;2022-09-29T07:08:22;7.30;99.90
33717;DHT22;20046;50.746;7.072;2022-09-29T07:10:47;7.40;99.90
33717;DHT22;20046;50.746;7.072;2022-09-29T07:13:13;7.40;99.90
33717;DHT22;20046;50.746;7.072;2022-09-29T07:15:39;7.50;99.90
33717;DHT22;20046;50.746;7.072;2022-09-29T07:18:04;7.70;99.90
33717;DHT22;20046;50.746;7.072;2022-09-29T07:20:30;7.70;99.90
33717;DHT22;20046;50.746;7.072;2022-09-29T07:22:57;7.80;99.90
33717;DHT22;20046;50.746;7.072;2022-09-29T07:25:22;7.90;99.90
33717;DHT22;20046;50.746;7.072;2022-09-29T07:27:49;8.00;99.90
33717;DHT22;20046;50.746;7.072;2022-09-29T07:30:16;8.10;99.90
33717;DHT22;20046;50.746;7.072;2022-09-29T07:32:43;8.20;99.90
33717;DHT22;20046;50.746;7.072;2022-09-29T07:35:08;8.30;99.90
33717;DHT22;20046;50.746;7.072;2022-09-29T07:37:34;8.30;99.90
33717;DHT22;20046;50.746;7.072;2022-09-29T07:40:00;8.30;99.90
33717;DHT22;20046;50.746;7.072;2022-09-29T07:42:27;8.30;99.90
33717;DHT22;20046;50.746;7.072;2022-09-29T07:44:54;8.40;99.90
33717;DHT22;20046;50.746;7.072;2022-09-29T07:47:20;8.50;99.90
33717;DHT22;20046;50.746;7.072;2022-09-29T07:49:45;8.50;99.90
33717;DHT22;20046;50.746;7.072;2022-09-29T07:52:14;8.60;99.90
33717;DHT22;20046;50.746;7.072;2022-09-29T07:54:40;8.60;99.90
33717;DHT22;20046;50.746;7.072;2022-09-29T07:57:05;8.60;99.90
33717;DHT22;20046;50.746;7.072;2022-09-29T07:59:31;8.70;99.90
33717;DHT22;20046;50.746;7.072;2022-09-29T08:01:56;8.70;99.90
33717;DHT22;20046;50.746;7.072;2022-09-29T08:04:22;8.70;99.90
33717;DHT22;20046;50.746;7.072;2022-09-29T08:06:49;8.80;99.90
33717;DHT22;20046;50.746;7.072;2022-09-29T08:09:14;8.90;99.90
33717;DHT22;20046;50.746;7.072;2022-09-29T08:11:41;8.90;99.90
33717;DHT22;20046;50.746;7.072;2022-09-29T08:14:08;9.00;99.90
33717;DHT22;20046;50.746;7.072;2022-09-29T08:16:35;9.00;99.90
33717;DHT22;20046;50.746;7.072;2022-09-29T08:19:01;9.10;99.90
33717;DHT22;20046;50.746;7.072;2022-09-29T08:21:28;9.10;99.90
33717;DHT22;20046;50.746;7.072;2022-09-29T08:23:54;9.20;99.90
33717;DHT22;20046;50.746;7.072;2022-09-29T08:26:20;9.20;99.90
33717;DHT22;20046;50.746;7.072;2022-09-29T08:28:47;9.30;99.90
33717;DHT22;20046;50.746;7.072;2022-09-29T08:31:15;9.40;99.90
33717;DHT22;20046;50.746;7.072;2022-09-29T08:33:50;9.40;99.90
33717;DHT22;20046;50.746;7.072;2022-09-29T08:36:19;9.50;99.90
33717;DHT22;20046;50.746;7.072;2022-09-29T08:38:50;9.60;99.90
33717;DHT22;20046;50.746;7.072;2022-09-29T08:47:31;9.90;99.90
33717;DHT22;20046;50.746;7.072;2022-09-29T08:52:30;10.60;99.90
33717;DHT22;20046;50.746;7.072;2022-09-29T08:57:45;11.80;99.90
33717;DHT22;20046;50.746;7.072;2022-09-29T09:00:13;12.10;99.90
33717;DHT22;20046;50.746;7.072;2022-09-29T09:16:51;11.60;99.90
33717;DHT22;20046;50.746;7.072;2022-09-29T09:25:06;11.10;99.90
33717;DHT22;20046;50.746;7.072;2022-09-29T09:27:42;11.00;99.90
33717;DHT22;20046;50.746;7.072;2022-09-29T09:30:15;10.90;99.90
33717;DHT22;20046;50.746;7.072;2022-09-29T09:32:48;11.00;99.90
33717;DHT22;20046;50.746;7.072;2022-09-29T09:35:27;11.10;99.90
33717;DHT22;20046;50.746;7.072;2022-09-29T09:37:59;11.20;99.90
33717;DHT22;20046;50.746;7.072;2022-09-29T09:40:34;11.30;99.90
33717;DHT22;20046;50.746;7.072;2022-09-29T09:46:08;11.60;99.90
33717;DHT22;20046;50.746;7.072;2022-09-29T09:48:41;11.80;99.90
33717;DHT22;20046;50.746;7.072;2022-09-29T09:51:44;11.90;99.90
33717;DHT22;20046;50.746;7.072;2022-09-29T09:54:24;12.00;99.90
33717;DHT22;20046;50.746;7.072;2022-09-29T10:02:16;11.80;99.90
33717;DHT22;20046;50.746;7.072;2022-09-29T10:04:42;11.80;99.90
33717;DHT22;20046;50.746;7.072;2022-09-29T10:07:09;12.00;99.90
33717;DHT22;20046;50.746;7.072;2022-09-29T10:09:34;12.30;99.90
33717;DHT22;20046;50.746;7.072;2022-09-29T10:12:00;12.50;99.90
33717;DHT22;20046;50.746;7.072;2022-09-29T10:14:27;12.60;99.90
33717;DHT22;20046;50.746;7.072;2022-09-29T10:16:59;12.70;99.90
33717;DHT22;20046;50.746;7.072;2022-09-29T10:19:52;12.80;99.90
33717;DHT22;20046;50.746;7.072;2022-09-29T10:22:19;12.90;99.90
33717;DHT22;20046;50.746;7.072;2022-09-29T10:24:44;13.00;99.90
33717;DHT22;20046;50.746;7.072;2022-09-29T10:27:11;13.10;99.90
33717;DHT22;20046;50.746;7.072;2022-09-29T10:29:44;13.20;99.90
33717;DHT22;20046;50.746;7.072;2022-09-29T10:32:30;13.40;99.90
33717;DHT22;20046;50.746;7.072;2022-09-29T10:35:22;13.60;99.90
33717;DHT22;20046;50.746;7.072;2022-09-29T10:38:02;13.70;99.90
33717;DHT22;20046;50.746;7.072;2022-09-29T10:40:29;13.70;99.90
33717;DHT22;20046;50.746;7.072;2022-09-29T10:42:56;13.70;99.90
33717;DHT22;20046;50.746;7.072;2022-09-29T10:45:22;13.70;99.90
33717;DHT22;20046;50.746;7.072;2022-09-29T10:50:29;14.10;99.90
33717;DHT22;20046;50.746;7.072;2022-09-29T10:53:16;14.30;99.90
33717;DHT22;20046;50.746;7.072;2022-09-29T10:55:49;14.60;99.90
33717;DHT22;20046;50.746;7.072;2022-09-29T10:58:22;14.80;99.90
33717;DHT22;20046;50.746;7.072;2022-09-29T11:00:48;15.10;99.90
33717;DHT22;20046;50.746;7.072;2022-09-29T11:03:16;15.30;99.90
33717;DHT22;20046;50.746;7.072;2022-09-29T11:06:02;15.50;99.90
33717;DHT22;20046;50.746;7.072;2022-09-29T11:08:29;15.80;99.90
33717;DHT22;20046;50.746;7.072;2022-09-29T11:13:44;16.20;99.90
33717;DHT22;20046;50.746;7.072;2022-09-29T11:18:49;16.40;99.90
33717;DHT22;20046;50.746;7.072;2022-09-29T11:24:02;16.60;99.90
33717;DHT22;20046;50.746;7.072;2022-09-29T11:26:35;17.00;99.90
33717;DHT22;20046;50.746;7.072;2022-09-29T11:38:24;17.60;99.90
33717;DHT22;20046;50.746;7.072;2022-09-29T11:43:53;18.60;99.90
33717;DHT22;20046;50.746;7.072;2022-09-29T11:49:03;19.00;99.10
33717;DHT22;20046;50.746;7.072;2022-09-29T12:00:13;19.60;95.80
33717;DHT22;20046;50.746;7.072;2022-09-29T12:03:13;21.70;92.40
33717;DHT22;20046;50.746;7.072;2022-09-29T12:08:41;22.90;89.90
33717;DHT22;20046;50.746;7.072;2022-09-29T12:11:19;25.00;86.60
33717;DHT22;20046;50.746;7.072;2022-09-29T12:14:21;25.70;80.20
33717;DHT22;20046;50.746;7.072;2022-09-29T12:17:03;26.50;77.20
33717;DHT22;20046;50.746;7.072;2022-09-29T12:19:32;25.90;75.20
33717;DHT22;20046;50.746;7.072;2022-09-29T12:22:02;24.60;77.40
33717;DHT22;20046;50.746;7.072;2022-09-29T12:27:09;21.90;77.10
33717;DHT22;20046;50.746;7.072;2022-09-29T12:29:43;20.70;79.40
33717;DHT22;20046;50.746;7.072;2022-09-29T12:32:19;19.60;83.40
33717;DHT22;20046;50.746;7.072;2022-09-29T12:34:58;18.80;85.70
33717;DHT22;20046;50.746;7.072;2022-09-29T12:40:37;17.70;90.70
33717;DHT22;20046;50.746;7.072;2022-09-29T12:53:31;24.20;79.60
33717;DHT22;20046;50.746;7.072;2022-09-29T12:56:02;25.70;75.40
33717;DHT22;20046;50.746;7.072;2022-09-29T13:12:05;25.20;70.80
33717;DHT22;20046;50.746;7.072;2022-09-29T13:24:51;29.30;63.50
33717;DHT22;20046;50.746;7.072;2022-09-29T13:27:31;29.30;60.60
33717;DHT22;20046;50.746;7.072;2022-09-29T13:30:05;28.60;60.40
33717;DHT22;20046;50.746;7.072;2022-09-29T13:32:39;28.50;59.50
33717;DHT22;20046;50.746;7.072;2022-09-29T13:35:16;28.80;59.60
33717;DHT22;20046;50.746;7.072;2022-09-29T13:40:25;28.90;57.40
33717;DHT22;20046;50.746;7.072;2022-09-29T13:42:56;29.10;57.70
33717;DHT22;20046;50.746;7.072;2022-09-29T13:47:57;25.50;61.60
33717;DHT22;20046;50.746;7.072;2022-09-29T13:50:51;23.30;63.60
33717;DHT22;20046;50.746;7.072;2022-09-29T13:58:31;19.40;72.20
33717;DHT22;20046;50.746;7.072;2022-09-29T14:01:00;18.70;75.30
33717;DHT22;20046;50.746;7.072;2022-09-29T14:03:32;18.20;76.70
33717;DHT22;20046;50.746;7.072;2022-09-29T14:06:21;18.00;76.90
33717;DHT22;20046;50.746;7.072;2022-09-29T14:09:20;19.50;77.50
33717;DHT22;20046;50.746;7.072;2022-09-29T14:11:47;21.50;72.70
33717;DHT22;20046;50.746;7.072;2022-09-29T14:22:02;26.40;62.20
33717;DHT22;20046;50.746;7.072;2022-09-29T14:29:46;26.30;59.70
33717;DHT22;20046;50.746;7.072;2022-09-29T14:32:19;25.40;61.00
33717;DHT22;20046;50.746;7.072;2022-09-29T14:34:46;23.60;63.00
33717;DHT22;20046;50.746;7.072;2022-09-29T14:37:18;23.30;63.60
33717;DHT22;20046;50.746;7.072;2022-09-29T14:39:48;23.70;64.20
33717;DHT22;20046;50.746;7.072;2022-09-29T14:42:33;23.70;64.50
33717;DHT22;20046;50.746;7.072;2022-09-29T14:45:00;22.90;65.60
33717;DHT22;20046;50.746;7.072;2022-09-29T14:47:53;21.70;67.30
33717;DHT22;20046;50.746;7.072;2022-09-29T14:59:04;18.00;75.60
33717;DHT22;20046;50.746;7.072;2022-09-29T15:01:40;17.50;78.90
33717;DHT22;20046;50.746;7.072;2022-09-29T15:04:18;17.00;80.00
33717;DHT22;20046;50.746;7.072;2022-09-29T15:06:48;16.70;80.50
33717;DHT22;20046;50.746;7.072;2022-09-29T15:09:19;16.40;81.70
33717;DHT22;20046;50.746;7.072;2022-09-29T15:11:54;16.20;82.90
33717;DHT22;20046;50.746;7.072;2022-09-29T15:14:27;16.00;84.90
33717;DHT22;20046;50.746;7.072;2022-09-29T15:22:37;15.50;84.80
33717;DHT22;20046;50.746;7.072;2022-09-29T15:25:25;15.30;86.10
33717;DHT22;20046;50.746;7.072;2022-09-29T15:28:16;15.10;87.60
33717;DHT22;20046;50.746;7.072;2022-09-29T15:30:44;15.00;88.80
33717;DHT22;20046;50.746;7.072;2022-09-29T15:33:26;14.90;90.10
33717;DHT22;20046;50.746;7.072;2022-09-29T15:36:02;14.80;89.80
33717;DHT22;20046;50.746;7.072;2022-09-29T15:38:31;14.80;89.30
33717;DHT22;20046;50.746;7.072;2022-09-29T15:43:41;14.80;89.70
33717;DHT22;20046;50.746;7.072;2022-09-29T15:46:15;14.80;89.30
33717;DHT22;20046;50.746;7.072;2022-09-29T15:51:30;14.70;90.50
33717;DHT22;20046;50.746;7.072;2022-09-29T15:53:56;14.50;90.30
33717;DHT22;20046;50.746;7.072;2022-09-29T15:56:25;14.40;91.00
33717;DHT22;20046;50.746;7.072;2022-09-29T15:58:51;14.30;91.40
33717;DHT22;20046;50.746;7.072;2022-09-29T16:01:18;14.20;91.60
33717;DHT22;20046;50.746;7.072;2022-09-29T16:04:10;14.10;91.80
33717;DHT22;20046;50.746;7.072;2022-09-29T16:06:43;14.00;91.60
33717;DHT22;20046;50.746;7.072;2022-09-29T16:09:17;13.90;92.30
33717;DHT22;20046;50.746;7.072;2022-09-29T16:11:44;13.80;93.20
33717;DHT22;20046;50.746;7.072;2022-09-29T16:14:25;13.70;93.40
33717;DHT22;20046;50.746;7.072;2022-09-29T16:16:52;13.60;93.30
33717;DHT22;20046;50.746;7.072;2022-09-29T16:19:25;13.60;93.50
33717;DHT22;20046;50.746;7.072;2022-09-29T16:21:53;13.50;93.80
33717;DHT22;20046;50.746;7.072;2022-09-29T16:24:20;13.50;93.80
33717;DHT22;20046;50.746;7.072;2022-09-29T16:26:50;13.50;94.10
33717;DHT22;20046;50.746;7.072;2022-09-29T16:29:33;13.40;95.00
33717;DHT22;20046;50.746;7.072;2022-09-29T16:35:36;13.30;96.30
33717;DHT22;20046;50.746;7.072;2022-09-29T16:38:23;13.20;96.90
33717;DHT22;20046;50.746;7.072;2022-09-29T16:40:51;13.20;98.20
33717;DHT22;20046;50.746;7.072;2022-09-29T16:43:27;13.20;99.70
33717;DHT22;20046;50.746;7.072;2022-09-29T16:45:58;13.00;99.90
33717;DHT22;20046;50.746;7.072;2022-09-29T16:48:28;13.00;99.90
33717;DHT22;20046;50.746;7.072;2022-09-29T16:50:57;12.90;99.90
33717;DHT22;20046;50.746;7.072;2022-09-29T16:53:29;12.80;99.90
33717;DHT22;20046;50.746;7.072;2022-09-29T16:56:10;12.70;99.90
33717;DHT22;20046;50.746;7.072;2022-09-29T16:58:43;12.60;99.90
33717;DHT22;20046;50.746;7.072;2022-09-29T17:01:10;12.50;99.90
33717;DHT22;20046;50.746;7.072;2022-09-29T17:03:38;12.50;99.90
33717;DHT22;20046;50.746;7.072;2022-09-29T17:06:04;12.40;99.90
33717;DHT22;20046;50.746;7.072;2022-09-29T17:08:31;12.30;99.90
33717;DHT22;20046;50.746;7.072;2022-09-29T17:10:59;12.20;99.90
33717;DHT22;20046;50.746;7.072;2022-09-29T17:13:29;12.10;99.90
33717;DHT22;20046;50.746;7.072;2022-09-29T17:15:55;12.10;99.90
33717;DHT22;20046;50.746;7.072;2022-09-29T17:18:21;12.00;99.90
33717;DHT22;20046;50.746;7.072;2022-09-29T17:20:49;11.90;99.90
33717;DHT22;20046;50.746;7.072;2022-09-29T17:23:15;11.80;99.90
33717;DHT22;20046;50.746;7.072;2022-09-29T17:25:45;11.70;99.90
33717;DHT22;20046;50.746;7.072;2022-09-29T17:28:15;11.60;99.90
33717;DHT22;20046;50.746;7.072;2022-09-29T17:30:44;11.60;99.90
33717;DHT22;20046;50.746;7.072;2022-09-29T17:33:12;11.50;99.90
33717;DHT22;20046;50.746;7.072;2022-09-29T17:35:42;11.40;99.90
33717;DHT22;20046;50.746;7.072;2022-09-29T17:38:09;11.30;99.90
33717;DHT22;20046;50.746;7.072;2022-09-29T17:40:47;11.30;99.90
33717;DHT22;20046;50.746;7.072;2022-09-29T17:43:14;11.20;99.90
33717;DHT22;20046;50.746;7.072;2022-09-29T17:45:41;11.20;99.90
33717;DHT22;20046;50.746;7.072;2022-09-29T17:48:09;11.10;99.90
33717;DHT22;20046;50.746;7.072;2022-09-29T17:50:51;11.00;99.90
33717;DHT22;20046;50.746;7.072;2022-09-29T17:53:20;11.00;99.90
33717;DHT22;20046;50.746;7.072;2022-09-29T17:55:47;11.00;99.90
33717;DHT22;20046;50.746;7.072;2022-09-29T17:58:18;11.00;99.90
33717;DHT22;20046;50.746;7.072;2022-09-29T18:00:46;11.00;99.90
33717;DHT22;20046;50.746;7.072;2022-09-29T18:03:14;10.90;99.90
33717;DHT22;20046;50.746;7.072;2022-09-29T18:05:43;10.90;99.90
33717;DHT22;20046;50.746;7.072;2022-09-29T18:08:18;10.80;99.90
33717;DHT22;20046;50.746;7.072;2022-09-29T18:10:55;10.80;99.90
33717;DHT22;20046;50.746;7.072;2022-09-29T18:13:22;10.80;99.90
33717;DHT22;20046;50.746;7.072;2022-09-29T18:15:48;10.80;99.90
33717;DHT22;20046;50.746;7.072;2022-09-29T18:18:16;10.80;99.90
33717;DHT22;20046;50.746;7.072;2022-09-29T18:20:43;10.70;99.90
33717;DHT22;20046;50.746;7.072;2022-09-29T18:23:14;10.70;99.90
33717;DHT22;20046;50.746;7.072;2022-09-29T18:25:41;10.60;99.90
33717;DHT22;20046;50.746;7.072;2022-09-29T18:28:11;10.60;99.90
33717;DHT22;20046;50.746;7.072;2022-09-29T18:30:37;10.50;99.90
33717;DHT22;20046;50.746;7.072;2022-09-29T18:33:17;10.40;99.90
33717;DHT22;20046;50.746;7.072;2022-09-29T18:35:45;10.40;99.90
33717;DHT22;20046;50.746;7.072;2022-09-29T18:38:11;10.30;99.90
33717;DHT22;20046;50.746;7.072;2022-09-29T18:40:38;10.30;99.90
33717;DHT22;20046;50.746;7.072;2022-09-29T18:43:04;10.20;99.90
33717;DHT22;20046;50.746;7.072;2022-09-29T18:45:34;10.20;99.90
33717;DHT22;20046;50.746;7.072;2022-09-29T18:48:03;10.10;99.90
33717;DHT22;20046;50.746;7.072;2022-09-29T18:50:32;10.10;99.90
33717;DHT22;20046;50.746;7.072;2022-09-29T18:52:58;10.10;99.90
33717;DHT22;20046;50.746;7.072;2022-09-29T18:55:26;10.00;99.90
33717;DHT22;20046;50.746;7.072;2022-09-29T18:57:53;10.10;99.90
33717;DHT22;20046;50.746;7.072;2022-09-29T19:00:22;10.00;99.90
33717;DHT22;20046;50.746;7.072;2022-09-29T19:02:48;10.00;99.90
33717;DHT22;20046;50.746;7.072;2022-09-29T19:05:16;9.90;99.90
33717;DHT22;20046;50.746;7.072;2022-09-29T19:07:47;9.90;99.90
33717;DHT22;20046;50.746;7.072;2022-09-29T19:10:14;9.80;99.90
33717;DHT22;20046;50.746;7.072;2022-09-29T19:12:41;9.80;99.90
33717;DHT22;20046;50.746;7.072;2022-09-29T19:15:11;9.70;99.90
33717;DHT22;20046;50.746;7.072;2022-09-29T19:17:37;9.60;99.90